createdAt,value
2023-03-22T00:01:23.727Z,103.40
2023-03-22T00:03:52.546Z,99.10
2023-03-22T00:06:20.322Z,91.60
2023-03-22T00:08:51.608Z,98.60
2023-03-22T00:11:20.658Z,93.00
2023-03-22T00:13:48.407Z,99.10
2023-03-22T00:16:16.104Z,94.00
2023-03-22T00:18:43.778Z,84.40
2023-03-22T00:21:13.414Z,102.20
2023-03-22T00:23:41.131Z,86.50
2023-03-22T00:26:09.819Z,87.50
2023-03-22T00:28:37.673Z,90.80
2023-03-22T00:31:05.610Z,96.60
2023-03-22T00:33:33.273Z,96.50
2023-03-22T00:36:08.014Z,104.40
2023-03-22T00:38:43.791Z,100.90
2023-03-22T00:41:20.033Z,110.40
2023-03-22T00:43:47.673Z,156.30
2023-03-22T00:46:16.165Z,103.10
2023-03-22T00:48:43.941Z,101.60
2023-03-22T00:51:11.799Z,100.90
2023-03-22T00:53:42.898Z,95.10
2023-03-22T00:56:15.598Z,97.50
2023-03-22T00:58:43.770Z,90.10
2023-03-22T01:01:14.601Z,97.50
2023-03-22T01:03:43.104Z,87.80
2023-03-22T01:06:11.049Z,128.60
2023-03-22T01:08:39.444Z,94.50
2023-03-22T01:11:07.627Z,80.80
2023-03-22T01:13:37.558Z,92.70
2023-03-22T01:16:06.416Z,92.20
2023-03-22T01:18:34.602Z,95.20
2023-03-22T01:21:02.223Z,88.10
2023-03-22T01:23:29.914Z,90.90
2023-03-22T01:25:57.566Z,81.60
2023-03-22T01:28:27.064Z,76.90
2023-03-22T01:30:55.506Z,96.70
2023-03-22T01:33:23.248Z,79.70
2023-03-22T01:35:51.628Z,83.30
2023-03-22T01:38:19.648Z,77.70
2023-03-22T01:40:47.217Z,86.70
2023-03-22T01:43:15.691Z,78.00
2023-03-22T01:45:45.860Z,72.30
2023-03-22T01:48:18.517Z,77.90
2023-03-22T01:50:56.074Z,79.30
2023-03-22T01:53:25.379Z,91.00
2023-03-22T01:55:53.626Z,73.90
2023-03-22T01:58:21.283Z,77.40
2023-03-22T02:00:49.143Z,87.30
2023-03-22T02:03:18.068Z,82.60
2023-03-22T02:05:46.120Z,75.80
2023-03-22T02:08:15.093Z,75.90
2023-03-22T02:10:43.119Z,80.40
2023-03-22T02:13:22.964Z,71.60
2023-03-22T02:16:19.695Z,100.80
2023-03-22T02:19:30.642Z,80.00
2023-03-22T02:24:51.644Z,84.30
2023-03-22T02:27:52.946Z,83.60
2023-03-22T02:30:56.405Z,80.00
2023-03-22T02:33:46.508Z,81.80
2023-03-22T02:36:33.189Z,80.40
2023-03-22T02:39:31.877Z,107.70
2023-03-22T02:42:21.250Z,83.50
2023-03-22T02:45:09.633Z,84.30
2023-03-22T02:47:41.699Z,83.80
2023-03-22T02:50:29.389Z,82.70
2023-03-22T02:53:06.004Z,72.80
2023-03-22T02:55:37.995Z,76.30
2023-03-22T02:58:19.813Z,72.80
2023-03-22T03:00:49.488Z,118.60
2023-03-22T03:03:18.476Z,76.70
2023-03-22T03:05:49.100Z,78.50
2023-03-22T03:08:19.791Z,77.20
2023-03-22T03:10:47.416Z,76.80
2023-03-22T03:13:16.215Z,71.00
2023-03-22T03:15:45.287Z,80.90
2023-03-22T03:18:35.740Z,78.60
2023-03-22T03:21:25.711Z,142.70
2023-03-22T03:24:23.479Z,89.50
2023-03-22T03:27:20.390Z,84.60
2023-03-22T03:29:51.367Z,84.50
2023-03-22T03:32:25.663Z,87.10
2023-03-22T03:34:57.548Z,72.80
2023-03-22T03:37:52.935Z,72.60
2023-03-22T03:40:34.070Z,131.00
2023-03-22T03:43:04.903Z,95.80
2023-03-22T03:45:33.175Z,85.50
2023-03-22T03:48:02.827Z,88.60
2023-03-22T03:50:30.840Z,67.70
2023-03-22T03:52:59.101Z,76.90
2023-03-22T03:55:26.669Z,62.90
2023-03-22T03:57:54.266Z,78.80
2023-03-22T04:00:22.077Z,106.30
2023-03-22T04:02:49.635Z,94.70
2023-03-22T04:05:17.373Z,82.60
2023-03-22T04:07:44.972Z,78.80
2023-03-22T04:10:12.550Z,77.90
2023-03-22T04:12:40.228Z,71.10
2023-03-22T04:15:08.507Z,71.00
2023-03-22T04:17:36.156Z,66.10
2023-03-22T04:20:06.021Z,102.90
2023-03-22T04:22:38.426Z,87.80
2023-03-22T04:25:15.024Z,76.20
2023-03-22T04:27:42.659Z,66.40
2023-03-22T04:30:12.635Z,65.90
2023-03-22T04:32:40.230Z,71.90
2023-03-22T04:35:08.406Z,64.10
2023-03-22T04:37:36.573Z,53.80
2023-03-22T04:40:08.516Z,95.40
2023-03-22T04:42:36.551Z,79.10
2023-03-22T04:45:04.762Z,74.80
2023-03-22T04:47:32.306Z,67.00
2023-03-22T04:49:59.930Z,57.20
2023-03-22T04:52:27.494Z,53.60
2023-03-22T04:54:55.314Z,73.00
2023-03-22T04:57:22.903Z,78.60
2023-03-22T04:59:50.844Z,61.20
2023-03-22T05:02:18.393Z,64.90
2023-03-22T05:04:46.190Z,68.50
2023-03-22T05:07:13.952Z,59.40
2023-03-22T05:09:41.652Z,66.10
2023-03-22T05:12:09.254Z,60.30
2023-03-22T05:14:36.888Z,80.70
2023-03-22T05:17:04.605Z,74.40
2023-03-22T05:19:33.180Z,62.60
2023-03-22T05:22:02.029Z,64.20
2023-03-22T05:24:30.460Z,58.20
2023-03-22T05:27:01.171Z,55.80
2023-03-22T05:29:29.159Z,55.80
2023-03-22T05:31:56.724Z,85.50
2023-03-22T05:34:24.429Z,66.10
2023-03-22T05:36:52.086Z,60.10
2023-03-22T05:39:20.529Z,59.30
2023-03-22T05:41:48.379Z,60.20
2023-03-22T05:44:16.180Z,57.50
2023-03-22T05:46:43.773Z,58.60
2023-03-22T05:49:12.247Z,62.10
2023-03-22T05:51:42.118Z,61.60
2023-03-22T05:54:09.831Z,57.90
2023-03-22T05:56:37.522Z,45.80
2023-03-22T05:59:05.212Z,54.20
2023-03-22T06:01:33.536Z,52.60
2023-03-22T06:04:01.546Z,68.00
2023-03-22T06:06:29.249Z,61.60
2023-03-22T06:09:07.263Z,51.00
2023-03-22T06:11:41.951Z,57.90
2023-03-22T06:14:09.629Z,61.50
2023-03-22T06:16:37.341Z,60.50
2023-03-22T06:19:05.024Z,59.90
2023-03-22T06:21:32.688Z,42.60
2023-03-22T06:24:00.580Z,76.00
2023-03-22T06:26:28.337Z,60.20
2023-03-22T06:28:56.393Z,51.60
2023-03-22T06:31:23.983Z,60.60
2023-03-22T06:33:52.647Z,49.90
2023-03-22T06:36:21.700Z,59.20
2023-03-22T06:38:49.264Z,51.80
2023-03-22T06:41:16.934Z,60.50
2023-03-22T06:43:44.530Z,59.90
2023-03-22T06:46:12.207Z,70.90
2023-03-22T06:48:39.974Z,62.20
2023-03-22T06:51:07.755Z,66.10
2023-03-22T06:53:35.893Z,58.40
2023-03-22T06:56:03.762Z,65.80
2023-03-22T06:58:31.526Z,59.00
2023-03-22T07:00:59.345Z,50.70
2023-03-22T07:03:27.258Z,59.70
2023-03-22T07:06:04.479Z,56.20
2023-03-22T07:08:32.271Z,54.50
2023-03-22T07:10:59.892Z,73.40
2023-03-22T07:13:27.702Z,64.10
2023-03-22T07:15:59.535Z,63.40
2023-03-22T07:18:27.663Z,59.00
2023-03-22T07:20:55.520Z,52.90
2023-03-22T07:23:23.208Z,56.40
2023-03-22T07:25:52.084Z,49.90
2023-03-22T07:28:19.804Z,50.90
2023-03-22T07:30:47.395Z,51.40
2023-03-22T07:33:15.469Z,57.80
2023-03-22T07:35:43.144Z,57.20
2023-03-22T07:38:11.496Z,52.40
2023-03-22T07:40:39.593Z,52.30
2023-03-22T07:43:07.669Z,50.70
2023-03-22T07:45:35.783Z,50.30
2023-03-22T07:48:03.816Z,51.60
2023-03-22T07:50:31.587Z,55.70
2023-03-22T07:52:59.552Z,59.30
2023-03-22T07:55:27.116Z,54.00
2023-03-22T07:57:55.066Z,42.50
2023-03-22T08:00:23.465Z,46.80
2023-03-22T08:02:51.274Z,47.30
2023-03-22T08:05:18.927Z,44.00
2023-03-22T08:07:47.266Z,49.20
2023-03-22T08:10:14.864Z,47.40
2023-03-22T08:12:42.459Z,48.80
2023-03-22T08:15:10.562Z,46.20
2023-03-22T08:17:38.273Z,35.00
2023-03-22T08:20:09.758Z,41.80
2023-03-22T08:22:38.324Z,49.80
2023-03-22T08:25:07.212Z,53.70
2023-03-22T08:27:34.802Z,44.40
2023-03-22T08:30:02.782Z,48.00
2023-03-22T08:32:30.505Z,46.40
2023-03-22T08:34:58.075Z,45.80
2023-03-22T08:37:25.761Z,44.60
2023-03-22T08:39:53.357Z,48.70
2023-03-22T08:42:21.344Z,49.20
2023-03-22T08:44:49.453Z,42.90
2023-03-22T08:47:17.043Z,48.20
2023-03-22T08:49:45.104Z,44.20
2023-03-22T08:52:12.822Z,34.50
2023-03-22T08:54:40.431Z,40.30
2023-03-22T08:57:09.509Z,74.70
2023-03-22T08:59:37.293Z,37.50
2023-03-22T09:02:05.846Z,38.00
2023-03-22T09:04:33.630Z,29.10
2023-03-22T09:07:01.638Z,39.10
2023-03-22T09:09:29.238Z,29.50
2023-03-22T09:11:58.150Z,37.60
2023-03-22T09:14:25.847Z,33.00
2023-03-22T09:16:53.518Z,28.60
2023-03-22T09:19:21.151Z,38.40
2023-03-22T09:21:50.248Z,33.50
2023-03-22T09:24:18.405Z,33.50
2023-03-22T09:26:46.865Z,32.60
2023-03-22T09:29:14.521Z,39.00
2023-03-22T09:31:42.311Z,29.60
2023-03-22T09:34:09.935Z,30.10
2023-03-22T09:36:37.706Z,39.90
2023-03-22T09:39:07.231Z,31.10
2023-03-22T09:41:38.541Z,27.80
2023-03-22T09:44:18.505Z,28.90
2023-03-22T09:46:48.630Z,28.60
2023-03-22T09:49:18.326Z,29.10
2023-03-22T09:51:50.677Z,28.30
2023-03-22T09:54:33.703Z,33.10
2023-03-22T09:57:05.804Z,31.40
2023-03-22T09:59:50.584Z,30.80
2023-03-22T10:02:24.509Z,32.00
2023-03-22T10:05:18.479Z,26.30
2023-03-22T10:07:46.256Z,25.70
2023-03-22T10:10:21.060Z,29.20
2023-03-22T10:12:54.172Z,25.50
2023-03-22T10:15:37.091Z,24.40
2023-03-22T10:18:07.210Z,26.70
2023-03-22T10:20:40.570Z,25.30
2023-03-22T10:23:12.637Z,25.80
2023-03-22T10:25:41.189Z,48.30
2023-03-22T10:28:22.152Z,30.50
2023-03-22T10:30:56.930Z,31.10
2023-03-22T10:33:39.079Z,37.70
2023-03-22T10:36:10.692Z,33.10
2023-03-22T10:38:44.111Z,29.90
2023-03-22T10:41:12.545Z,65.20
2023-03-22T10:43:40.550Z,28.90
2023-03-22T10:46:13.679Z,26.30
2023-03-22T10:48:43.795Z,24.50
2023-03-22T10:51:16.430Z,24.60
2023-03-22T10:53:46.765Z,25.00
2023-03-22T10:56:16.054Z,25.90
2023-03-22T10:58:43.852Z,23.40
2023-03-22T11:01:13.433Z,27.90
2023-03-22T11:03:42.990Z,28.20
2023-03-22T11:06:23.732Z,21.80
2023-03-22T11:08:53.431Z,26.60
2023-03-22T11:11:32.482Z,29.40
2023-03-22T11:14:16.875Z,21.60
2023-03-22T11:16:55.910Z,24.70
2023-03-22T11:19:35.453Z,31.10
2023-03-22T11:22:05.098Z,23.80
2023-03-22T11:24:33.290Z,27.30
2023-03-22T11:27:08.656Z,29.90
2023-03-22T11:29:42.315Z,22.70
2023-03-22T11:32:38.791Z,29.30
2023-03-22T11:35:17.863Z,24.90
2023-03-22T11:37:47.719Z,36.30
2023-03-22T11:40:32.500Z,21.30
2023-03-22T11:43:18.061Z,20.60
2023-03-22T11:45:46.176Z,30.90
2023-03-22T11:48:19.316Z,19.40
2023-03-22T11:50:47.382Z,19.70
2023-03-22T11:53:20.601Z,83.70
2023-03-22T11:55:49.074Z,32.70
2023-03-22T11:58:39.186Z,48.80
2023-03-22T12:01:07.212Z,97.40
2023-03-22T12:03:39.046Z,35.80
2023-03-22T12:06:21.767Z,107.60
2023-03-22T12:08:58.634Z,22.40
2023-03-22T12:11:41.871Z,17.10
2023-03-22T12:14:21.990Z,46.40
2023-03-22T12:16:51.018Z,15.90
2023-03-22T12:19:46.570Z,11.20
2023-03-22T12:22:17.018Z,11.30
2023-03-22T12:24:44.615Z,11.70
2023-03-22T12:27:21.528Z,10.40
2023-03-22T12:29:53.852Z,9.70
2023-03-22T12:32:24.784Z,11.50
2023-03-22T12:34:55.005Z,10.80
2023-03-22T12:37:32.283Z,9.60
2023-03-22T12:40:27.249Z,13.00
2023-03-22T12:43:02.047Z,9.60
2023-03-22T12:45:31.596Z,11.10
2023-03-22T12:48:14.484Z,39.20
2023-03-22T12:50:44.814Z,14.50
2023-03-22T12:53:14.543Z,12.50
2023-03-22T12:55:42.389Z,12.90
2023-03-22T12:58:10.562Z,10.30
2023-03-22T13:00:47.958Z,13.50
2023-03-22T13:03:16.279Z,11.60
2023-03-22T13:05:45.007Z,12.50
2023-03-22T13:08:14.479Z,7.80
2023-03-22T13:10:58.516Z,9.10
2023-03-22T13:13:27.892Z,117.00
2023-03-22T13:16:02.811Z,30.90
2023-03-22T13:18:36.529Z,30.20
2023-03-22T13:21:21.271Z,7.80
2023-03-22T13:24:02.357Z,43.10
2023-03-22T13:26:32.670Z,12.20
2023-03-22T13:29:02.097Z,39.00
2023-03-22T13:31:52.305Z,23.20
2023-03-22T13:34:21.985Z,19.60
2023-03-22T13:36:51.751Z,90.10
2023-03-22T13:39:21.400Z,34.00
2023-03-22T13:41:49.987Z,20.00
2023-03-22T13:44:26.507Z,8.50
2023-03-22T13:46:57.240Z,8.60
2023-03-22T13:49:48.184Z,11.80
2023-03-22T13:52:25.532Z,13.80
2023-03-22T13:54:54.208Z,12.90
2023-03-22T13:58:01.868Z,9.00
2023-03-22T14:00:29.491Z,9.80
2023-03-22T14:03:18.233Z,10.70
2023-03-22T14:05:47.762Z,18.90
2023-03-22T14:08:22.099Z,52.80
2023-03-22T14:11:02.772Z,80.40
2023-03-22T14:13:32.153Z,12.10
2023-03-22T14:16:08.601Z,20.30
2023-03-22T14:18:37.212Z,11.50
2023-03-22T14:21:13.105Z,41.80
